createdAt,value
2023-04-27T00:01:37.688Z,9.80
2023-04-27T00:04:05.065Z,9.55
2023-04-27T00:06:32.711Z,8.45
2023-04-27T00:08:59.733Z,9.35
2023-04-27T01:00:32.414Z,8.15
2023-04-27T01:03:00.250Z,9.55
2023-04-27T01:05:27.473Z,7.95
2023-04-27T01:07:54.934Z,9.05
2023-04-27T01:10:22.078Z,8.80
2023-04-27T01:12:49.192Z,8.48
2023-04-27T01:15:16.414Z,9.20
2023-04-27T01:17:43.740Z,8.38
2023-04-27T01:20:11.519Z,8.50
2023-04-27T01:22:38.984Z,8.10
2023-04-27T01:25:06.665Z,8.73
2023-04-27T01:27:33.790Z,8.05
2023-04-27T01:30:00.939Z,8.32
2023-04-27T01:32:28.101Z,8.30
2023-04-27T01:34:55.407Z,8.27
2023-04-27T01:37:22.581Z,9.00
2023-04-27T01:39:49.652Z,8.48
2023-04-27T01:42:17.231Z,8.10
2023-04-27T01:44:44.324Z,8.75
2023-04-27T01:47:11.433Z,7.65
2023-04-27T01:49:38.850Z,9.00
2023-04-27T01:52:05.957Z,9.32
2023-04-27T01:54:33.037Z,9.20
2023-04-27T01:57:01.632Z,8.20
2023-04-27T01:59:29.278Z,8.35
2023-04-27T02:01:56.743Z,8.35
2023-04-27T02:04:24.125Z,8.18
2023-04-27T02:06:51.263Z,8.70
2023-04-27T02:09:18.357Z,8.77
2023-04-27T02:11:45.553Z,9.70
2023-04-27T02:14:12.644Z,9.13
2023-04-27T02:16:39.808Z,8.77
2023-04-27T02:19:07.163Z,8.13
2023-04-27T02:21:34.246Z,8.55
2023-04-27T02:24:01.852Z,8.70
2023-04-27T02:26:32.374Z,10.00
2023-04-27T02:28:59.615Z,8.10
2023-04-27T02:31:27.217Z,9.50
2023-04-27T02:33:54.412Z,9.38
2023-04-27T02:36:21.572Z,9.18
2023-04-27T02:38:48.718Z,9.15
2023-04-27T02:41:15.840Z,9.20
2023-04-27T02:43:42.934Z,8.10
2023-04-27T02:46:10.140Z,8.07
2023-04-27T02:48:37.229Z,8.77
2023-04-27T02:51:05.046Z,9.25
2023-04-27T02:53:32.180Z,9.20
2023-04-27T02:55:59.395Z,9.40
2023-04-27T02:58:26.685Z,10.07
2023-04-27T03:00:57.736Z,8.60
2023-04-27T03:03:25.300Z,9.13
2023-04-27T03:05:52.550Z,9.65
2023-04-27T03:08:19.620Z,9.43
2023-04-27T03:10:46.808Z,9.38
2023-04-27T03:13:15.859Z,9.43
2023-04-27T03:15:42.969Z,9.45
2023-04-27T03:18:10.171Z,10.70
2023-04-27T03:20:37.265Z,10.38
2023-04-27T03:23:04.948Z,9.82
2023-04-27T03:25:32.094Z,9.55
2023-04-27T03:27:59.275Z,10.75
2023-04-27T03:30:26.772Z,9.82
2023-04-27T03:32:54.686Z,9.85
2023-04-27T03:35:21.866Z,9.13
2023-04-27T03:37:48.976Z,8.82
2023-04-27T03:40:16.133Z,10.02
2023-04-27T03:42:43.297Z,9.70
2023-04-27T03:45:12.160Z,9.93
2023-04-27T03:47:39.272Z,9.07
2023-04-27T03:50:07.347Z,9.65
2023-04-27T03:52:34.441Z,9.50
2023-04-27T03:55:01.523Z,9.43
2023-04-27T03:57:28.799Z,8.93
2023-04-27T03:59:56.708Z,9.35
2023-04-27T04:02:24.230Z,9.50
2023-04-27T04:04:51.693Z,9.95
2023-04-27T04:07:18.948Z,8.80
2023-04-27T04:09:46.173Z,9.57
2023-04-27T04:12:13.321Z,10.00
2023-04-27T04:14:40.408Z,9.73
2023-04-27T04:17:10.897Z,9.90
2023-04-27T04:19:38.105Z,10.95
2023-04-27T04:22:05.243Z,10.13
2023-04-27T04:24:32.342Z,9.95
2023-04-27T04:26:59.705Z,10.38
2023-04-27T04:29:28.904Z,11.20
2023-04-27T04:31:59.071Z,10.02
2023-04-27T04:34:26.178Z,11.27
2023-04-27T04:36:53.081Z,10.73
2023-04-27T04:39:20.565Z,12.07
2023-04-27T04:41:47.269Z,11.88
2023-04-27T04:44:14.021Z,11.88
2023-04-27T04:46:40.965Z,12.23
2023-04-27T04:49:07.970Z,12.45
2023-04-27T04:51:35.020Z,13.55
2023-04-27T04:54:02.133Z,13.65
2023-04-27T04:56:28.973Z,12.65
2023-04-27T04:58:55.884Z,12.35
2023-04-27T05:01:22.709Z,13.57
2023-04-27T05:03:49.588Z,13.40
2023-04-27T05:06:16.337Z,12.70
2023-04-27T05:08:43.033Z,11.18
2023-04-27T05:11:09.972Z,12.50
2023-04-27T05:13:38.295Z,11.82
2023-04-27T05:16:06.255Z,11.77
2023-04-27T05:18:34.340Z,12.45
2023-04-27T05:21:01.195Z,11.18
2023-04-27T05:23:27.911Z,11.68
2023-04-27T05:25:54.615Z,12.55
2023-04-27T05:28:21.463Z,10.30
2023-04-27T05:30:48.155Z,11.80
2023-04-27T05:33:15.577Z,12.73
2023-04-27T05:35:42.298Z,13.20
2023-04-27T05:38:09.085Z,10.55
2023-04-27T05:40:36.014Z,11.73
2023-04-27T05:43:05.274Z,10.80
2023-04-27T05:45:32.114Z,8.85
2023-04-27T05:47:58.948Z,10.05
2023-04-27T05:50:25.844Z,8.45
2023-04-27T05:52:52.518Z,9.82
2023-04-27T05:55:19.270Z,9.77
2023-04-27T05:57:47.650Z,8.65
2023-04-27T06:00:16.987Z,8.60
2023-04-27T06:02:43.869Z,9.25
2023-04-27T06:05:11.087Z,9.50
2023-04-27T06:07:37.979Z,9.52
2023-04-27T06:10:05.362Z,9.68
2023-04-27T06:12:32.470Z,9.18
2023-04-27T06:14:59.131Z,8.95
2023-04-27T06:17:25.829Z,10.00
2023-04-27T06:19:52.519Z,8.95
2023-04-27T06:22:19.195Z,9.07
2023-04-27T06:24:46.780Z,8.82
2023-04-27T06:27:13.528Z,8.23
2023-04-27T06:29:40.219Z,7.63
2023-04-27T06:32:07.096Z,8.30
2023-04-27T06:34:35.190Z,8.63
2023-04-27T06:37:02.392Z,7.35
2023-04-27T06:39:29.348Z,7.63
2023-04-27T06:41:56.022Z,7.47
2023-04-27T06:44:22.724Z,7.00
2023-04-27T06:46:49.486Z,6.68
2023-04-27T06:49:16.562Z,6.68
2023-04-27T06:51:43.618Z,6.57
2023-04-27T06:54:10.556Z,7.10
2023-04-27T06:56:37.279Z,6.57
2023-04-27T06:59:03.966Z,5.82
2023-04-27T07:01:30.767Z,5.38
2023-04-27T07:03:57.722Z,4.85
2023-04-27T07:06:25.920Z,5.18
2023-04-27T07:08:52.682Z,5.85
2023-04-27T07:11:19.370Z,5.45
2023-04-27T07:13:46.115Z,5.88
2023-04-27T07:16:13.206Z,6.03
2023-04-27T07:18:41.001Z,6.90
2023-04-27T07:21:09.486Z,5.50
2023-04-27T07:23:36.220Z,5.20
2023-04-27T07:26:03.014Z,4.60
2023-04-27T07:28:29.806Z,5.38
2023-04-27T07:30:58.057Z,5.95
2023-04-27T07:33:24.823Z,3.45
2023-04-27T07:35:53.829Z,3.33
2023-04-27T07:38:20.977Z,2.75
2023-04-27T07:40:47.898Z,3.78
2023-04-27T07:43:15.694Z,3.97
2023-04-27T07:45:42.561Z,3.40
2023-04-27T07:48:09.934Z,4.18
2023-04-27T07:50:36.874Z,3.63
2023-04-27T07:53:03.619Z,3.03
2023-04-27T07:55:30.581Z,3.30
2023-04-27T07:57:57.472Z,3.47
2023-04-27T08:00:28.008Z,3.28
2023-04-27T08:02:57.191Z,3.58
2023-04-27T08:05:24.708Z,3.53
2023-04-27T08:07:54.230Z,3.78
2023-04-27T08:10:22.199Z,3.65
2023-04-27T08:12:51.383Z,4.47
2023-04-27T08:15:18.134Z,3.28
2023-04-27T08:17:45.026Z,3.20
2023-04-27T08:20:12.086Z,3.88
2023-04-27T08:22:42.748Z,3.58
2023-04-27T08:25:09.970Z,3.83
2023-04-27T08:27:41.175Z,3.40
2023-04-27T08:30:08.581Z,3.13
2023-04-27T08:32:35.479Z,3.88
2023-04-27T08:35:02.217Z,3.58
2023-04-27T08:37:28.931Z,3.78
2023-04-27T08:39:55.671Z,3.33
2023-04-27T08:42:22.439Z,3.95
2023-04-27T08:44:49.350Z,3.67
2023-04-27T08:47:16.197Z,3.50
2023-04-27T08:49:42.974Z,3.60
2023-04-27T08:52:17.372Z,4.13
2023-04-27T08:54:44.591Z,3.88
2023-04-27T08:57:15.230Z,4.32
2023-04-27T08:59:42.564Z,3.40
2023-04-27T09:02:20.350Z,3.65
2023-04-27T09:04:47.302Z,3.83
2023-04-27T09:07:16.270Z,3.95
2023-04-27T09:09:44.281Z,3.85
2023-04-27T09:12:15.740Z,3.80
2023-04-27T09:14:42.860Z,4.07
2023-04-27T09:17:09.761Z,3.47
2023-04-27T09:19:36.602Z,3.45
2023-04-27T09:22:08.495Z,3.47
2023-04-27T09:24:35.910Z,5.28
2023-04-27T09:27:03.300Z,3.63
2023-04-27T09:29:44.942Z,4.15
2023-04-27T09:32:20.554Z,3.33
2023-04-27T09:34:47.370Z,3.10
2023-04-27T09:37:14.851Z,3.15
2023-04-27T09:39:42.262Z,3.30
2023-04-27T09:42:09.425Z,2.90
2023-04-27T09:44:36.419Z,3.20
2023-04-27T09:47:03.252Z,3.00
2023-04-27T09:49:30.076Z,3.00
2023-04-27T09:51:58.687Z,3.15
2023-04-27T09:54:30.116Z,2.95
2023-04-27T09:57:12.098Z,3.47
2023-04-27T10:00:01.671Z,3.30
2023-04-27T10:02:46.152Z,3.63
2023-04-27T10:05:25.667Z,3.45
2023-04-27T10:07:53.426Z,4.00
2023-04-27T10:10:20.565Z,4.68
2023-04-27T10:13:00.589Z,4.45
2023-04-27T10:15:28.744Z,4.13
2023-04-27T10:17:58.913Z,3.92
2023-04-27T10:25:28.911Z,3.90
2023-04-27T10:27:57.012Z,3.42
2023-04-27T10:30:26.338Z,4.57
2023-04-27T10:32:57.816Z,3.38
2023-04-27T10:35:41.604Z,3.70
2023-04-27T10:38:16.632Z,3.45
2023-04-27T10:41:03.463Z,3.83
2023-04-27T10:43:32.114Z,4.15
2023-04-27T10:46:18.107Z,3.47
2023-04-27T10:48:45.359Z,3.85
2023-04-27T10:51:18.212Z,3.47
2023-04-27T10:53:45.997Z,4.10
2023-04-27T10:56:12.711Z,3.92
2023-04-27T10:58:48.795Z,3.50
2023-04-27T11:01:25.560Z,4.53
2023-04-27T11:03:59.683Z,4.15
2023-04-27T11:06:28.275Z,4.03
2023-04-27T11:08:55.007Z,4.05
2023-04-27T11:11:22.651Z,3.65
2023-04-27T11:13:50.051Z,3.83
2023-04-27T11:16:47.528Z,3.70
2023-04-27T11:19:06.743Z,3.50
2023-04-27T11:21:33.471Z,3.78
2023-04-27T11:24:07.568Z,4.80
2023-04-27T11:26:34.491Z,3.72
2023-04-27T11:29:09.360Z,4.30
2023-04-27T11:31:47.564Z,3.65
2023-04-27T11:34:19.680Z,4.13
2023-04-27T11:37:07.143Z,4.30
2023-04-27T11:39:46.008Z,3.75
2023-04-27T11:42:22.151Z,4.97
2023-04-27T11:45:07.999Z,4.15
2023-04-27T11:47:39.246Z,3.65
2023-04-27T11:50:08.264Z,4.15
2023-04-27T11:52:36.886Z,4.45
2023-04-27T11:55:04.865Z,3.88
2023-04-27T11:57:36.078Z,3.33
2023-04-27T12:00:14.287Z,4.07
2023-04-27T12:02:43.610Z,5.25
2023-04-27T12:05:12.226Z,3.83
2023-04-27T12:07:39.590Z,4.38
2023-04-27T12:10:08.241Z,3.95
2023-04-27T12:12:35.925Z,3.70
2023-04-27T12:15:03.424Z,3.95
2023-04-27T12:17:30.364Z,3.28
2023-04-27T12:19:57.156Z,3.72
2023-04-27T12:22:23.981Z,3.20
2023-04-27T12:24:51.050Z,3.45
2023-04-27T12:27:17.892Z,4.03
2023-04-27T12:29:44.588Z,3.58
2023-04-27T12:32:11.385Z,3.92
2023-04-27T12:34:39.380Z,4.10
2023-04-27T12:37:06.717Z,4.30
2023-04-27T12:39:33.399Z,3.83
2023-04-27T12:42:08.846Z,3.97
2023-04-27T12:44:36.312Z,4.07
2023-04-27T12:47:04.216Z,8.73
2023-04-27T12:49:31.119Z,4.68
2023-04-27T12:51:58.435Z,4.00
2023-04-27T12:54:25.176Z,3.95
2023-04-27T12:56:52.257Z,4.60
2023-04-27T12:59:19.287Z,3.90
2023-04-27T13:01:46.311Z,4.10
2023-04-27T13:04:21.518Z,3.90
2023-04-27T13:06:49.040Z,4.97
2023-04-27T13:09:17.081Z,4.22
2023-04-27T13:11:44.924Z,3.80
2023-04-27T13:14:13.155Z,3.83
2023-04-27T13:16:41.413Z,4.53
2023-04-27T13:19:11.359Z,3.50
2023-04-27T13:21:38.144Z,4.30
2023-04-27T13:24:05.866Z,4.20
2023-04-27T13:26:32.589Z,3.80
2023-04-27T13:28:59.368Z,3.70
2023-04-27T13:31:26.194Z,4.70
2023-04-27T13:33:53.744Z,15.38
2023-04-27T13:36:20.845Z,4.43
2023-04-27T13:38:47.628Z,5.72
2023-04-27T13:41:14.796Z,3.80
2023-04-27T13:43:41.519Z,4.28
2023-04-27T13:46:11.512Z,4.03
2023-04-27T13:48:39.946Z,5.47
2023-04-27T13:51:06.755Z,4.78
2023-04-27T13:53:33.435Z,4.57
2023-04-27T13:56:00.309Z,4.68
2023-04-27T13:58:27.995Z,4.40
2023-04-27T14:00:56.006Z,4.50
2023-04-27T14:03:23.006Z,4.88
2023-04-27T14:05:51.338Z,5.00
2023-04-27T14:08:20.603Z,4.53
2023-04-27T14:10:48.646Z,4.97
2023-04-27T14:13:15.648Z,4.63
2023-04-27T14:15:42.421Z,5.05
2023-04-27T14:18:09.706Z,5.03
2023-04-27T14:20:37.718Z,5.20
2023-04-27T14:23:05.453Z,4.45
2023-04-27T14:25:34.296Z,4.53
2023-04-27T14:28:05.898Z,4.72
2023-04-27T14:30:33.288Z,4.88
2023-04-27T14:33:00.138Z,4.55
2023-04-27T14:35:28.237Z,5.00
2023-04-27T14:37:57.153Z,5.55
2023-04-27T14:40:24.178Z,4.72
2023-04-27T14:42:52.049Z,5.07
2023-04-27T14:45:19.014Z,5.05
2023-04-27T14:47:45.887Z,4.53
2023-04-27T14:50:13.002Z,4.70
2023-04-27T14:52:39.896Z,4.70
2023-04-27T14:55:07.673Z,5.05
2023-04-27T14:57:34.408Z,5.25
2023-04-27T15:00:01.502Z,4.45
2023-04-27T15:02:28.410Z,4.75
2023-04-27T15:04:55.524Z,4.60
2023-04-27T15:07:23.775Z,4.22
2023-04-27T15:09:52.207Z,3.83
2023-04-27T15:12:18.879Z,3.88
2023-04-27T15:14:46.602Z,4.80
2023-04-27T15:17:14.284Z,4.10
2023-04-27T15:19:41.220Z,3.90
2023-04-27T15:22:11.532Z,3.75
2023-04-27T15:24:39.288Z,4.03
2023-04-27T15:27:07.850Z,2.97
2023-04-27T15:32:04.144Z,3.55
2023-04-27T15:34:31.228Z,3.38
2023-04-27T15:36:58.030Z,4.40
2023-04-27T15:39:24.934Z,4.90
2023-04-27T15:41:51.759Z,5.50
2023-04-27T15:46:59.672Z,9.20
2023-04-27T15:49:27.985Z,4.70
2023-04-27T15:51:56.118Z,4.57
2023-04-27T15:54:25.778Z,6.88
2023-04-27T15:56:52.788Z,4.53
2023-04-27T15:59:22.364Z,4.10
2023-04-27T16:01:53.737Z,9.25
2023-04-27T16:04:21.588Z,4.45
2023-04-27T16:06:48.443Z,3.45
2023-04-27T16:09:16.046Z,5.68
2023-04-27T16:11:43.122Z,4.20
2023-04-27T16:14:09.883Z,3.65
2023-04-27T16:16:36.913Z,3.92
2023-04-27T16:19:03.761Z,4.57
2023-04-27T16:21:30.909Z,4.28
2023-04-27T16:23:57.720Z,4.30
2023-04-27T16:26:26.018Z,4.93
2023-04-27T16:28:56.534Z,5.18
2023-04-27T16:31:23.781Z,4.30
2023-04-27T16:33:50.893Z,4.25
2023-04-27T16:36:17.727Z,4.78
2023-04-27T16:38:44.928Z,4.53
2023-04-27T16:41:11.644Z,4.68
2023-04-27T16:43:38.774Z,4.28
2023-04-27T16:46:08.467Z,4.22
2023-04-27T16:48:35.330Z,4.65
2023-04-27T16:51:02.111Z,4.65
2023-04-27T16:53:28.950Z,4.07
2023-04-27T16:55:58.931Z,4.30
2023-04-27T16:58:25.829Z,4.43
2023-04-27T17:00:52.938Z,3.92
2023-04-27T17:03:19.787Z,4.25
2023-04-27T17:05:46.725Z,4.38
2023-04-27T17:08:13.820Z,4.63
2023-04-27T17:10:41.959Z,4.30
2023-04-27T17:13:10.971Z,4.97
2023-04-27T17:15:38.100Z,5.50
2023-04-27T17:18:05.151Z,4.72
2023-04-27T17:20:32.196Z,4.18
2023-04-27T17:22:58.955Z,5.88
2023-04-27T17:25:27.289Z,6.55
2023-04-27T17:27:54.034Z,5.20
2023-04-27T17:30:21.090Z,5.20
2023-04-27T17:32:47.900Z,4.80
2023-04-27T17:35:14.681Z,4.95
2023-04-27T17:37:41.509Z,4.53
2023-04-27T17:40:09.107Z,4.47
2023-04-27T17:42:36.268Z,4.47
2023-04-27T17:45:03.156Z,5.13
2023-04-27T17:47:29.965Z,6.07
2023-04-27T17:49:56.742Z,6.78
2023-04-27T17:52:23.480Z,6.07
2023-04-27T17:54:50.758Z,6.95
2023-04-27T17:57:17.524Z,14.73
2023-04-27T17:59:45.033Z,8.05
2023-04-27T18:02:11.828Z,7.78
2023-04-27T18:04:39.028Z,8.00
2023-04-27T18:07:05.753Z,9.25
2023-04-27T18:09:33.120Z,9.32
2023-04-27T18:12:00.003Z,7.40
2023-04-27T18:14:26.745Z,9.63
2023-04-27T18:16:53.596Z,12.00
2023-04-27T18:19:20.632Z,11.35
2023-04-27T18:21:47.399Z,7.65
2023-04-27T18:24:14.119Z,7.55
2023-04-27T18:26:40.940Z,8.60
2023-04-27T18:29:07.725Z,9.10
2023-04-27T18:31:34.990Z,10.43
2023-04-27T18:34:01.924Z,9.20
2023-04-27T18:36:28.796Z,8.68
2023-04-27T18:38:57.995Z,7.05
2023-04-27T18:41:25.410Z,9.27
2023-04-27T18:43:52.269Z,10.05
2023-04-27T18:46:19.089Z,12.07
2023-04-27T18:48:45.809Z,12.45
2023-04-27T18:51:12.511Z,11.27
2023-04-27T18:53:39.483Z,9.43
2023-04-27T18:56:07.159Z,8.57
2023-04-27T18:58:34.933Z,8.25
2023-04-27T19:01:01.728Z,7.57
2023-04-27T19:03:28.546Z,8.32
2023-04-27T19:05:55.665Z,8.88
2023-04-27T19:08:22.360Z,10.60
2023-04-27T19:10:51.170Z,13.45
2023-04-27T19:13:17.943Z,16.80
2023-04-27T19:15:44.658Z,15.65
2023-04-27T19:18:13.893Z,17.65
2023-04-27T19:20:40.776Z,18.83
2023-04-27T19:23:09.398Z,20.40
2023-04-27T19:25:36.723Z,17.63
2023-04-27T19:28:04.317Z,20.48
2023-04-27T19:30:31.140Z,19.20
2023-04-27T19:32:57.935Z,19.92
2023-04-27T19:35:26.433Z,19.00
2023-04-27T19:37:53.334Z,19.70
2023-04-27T19:40:20.087Z,17.27
2023-04-27T19:42:47.024Z,18.83
2023-04-27T19:45:14.065Z,19.27
2023-04-27T19:47:40.877Z,18.33
2023-04-27T19:50:07.989Z,17.60
2023-04-27T19:52:34.888Z,18.25
2023-04-27T19:55:01.739Z,18.08
2023-04-27T19:57:28.539Z,18.40
2023-04-27T19:59:55.325Z,18.33
2023-04-27T20:02:22.110Z,17.40
2023-04-27T20:04:49.457Z,17.00
2023-04-27T20:07:16.765Z,18.38
2023-04-27T20:09:43.678Z,18.90
2023-04-27T20:12:28.898Z,18.35
2023-04-27T20:14:58.512Z,19.83
2023-04-27T20:17:28.087Z,18.65
2023-04-27T20:19:57.916Z,20.03
2023-04-27T20:22:25.090Z,20.98
2023-04-27T20:24:51.824Z,21.17
2023-04-27T20:27:18.578Z,21.00
2023-04-27T20:29:47.261Z,21.50
2023-04-27T20:32:13.953Z,21.13
2023-04-27T20:34:40.701Z,19.63
2023-04-27T20:37:07.509Z,20.35
2023-04-27T20:39:34.969Z,21.25
2023-04-27T20:42:01.763Z,20.48
2023-04-27T20:44:28.444Z,21.27
2023-04-27T20:46:55.106Z,22.30
2023-04-27T20:49:32.065Z,23.10
2023-04-27T20:52:02.154Z,24.25
2023-04-27T20:54:31.354Z,23.20
2023-04-27T20:56:58.406Z,26.30
2023-04-27T20:59:25.145Z,25.65
2023-04-27T21:01:52.090Z,26.67
2023-04-27T21:04:19.076Z,28.80
2023-04-27T21:06:46.125Z,31.80
2023-04-27T21:09:12.788Z,34.80
2023-04-27T21:11:39.466Z,32.53
2023-04-27T21:14:06.173Z,28.55
2023-04-27T21:16:32.945Z,28.95
2023-04-27T21:18:59.761Z,32.38
2023-04-27T21:21:26.728Z,31.17
2023-04-27T21:24:04.249Z,28.02
2023-04-27T21:26:33.744Z,28.77
2023-04-27T21:29:01.145Z,33.17
2023-04-27T21:31:27.984Z,33.33
2023-04-27T21:33:54.755Z,32.15
2023-04-27T21:36:21.608Z,39.25
2023-04-27T21:38:48.365Z,42.28
2023-04-27T21:41:16.680Z,41.80
2023-04-27T21:43:44.144Z,42.58
2023-04-27T21:46:10.966Z,42.78
2023-04-27T21:48:37.678Z,47.33
2023-04-27T21:51:04.458Z,46.05
2023-04-27T21:53:31.480Z,43.97
2023-04-27T21:55:58.419Z,46.67
2023-04-27T21:58:25.862Z,37.50
2023-04-27T22:00:53.406Z,37.70
2023-04-27T22:03:22.031Z,37.95
2023-04-27T22:05:50.619Z,37.38
2023-04-27T22:08:18.013Z,40.28
2023-04-27T22:10:45.382Z,38.35
2023-04-27T22:13:18.358Z,32.95
2023-04-27T22:15:47.516Z,32.95
2023-04-27T22:18:15.488Z,30.75
2023-04-27T22:20:42.903Z,27.73
2023-04-27T22:23:10.244Z,27.73
2023-04-27T22:25:37.084Z,26.60
2023-04-27T22:28:03.880Z,27.15
2023-04-27T22:30:31.174Z,24.42
2023-04-27T22:32:58.083Z,27.58
2023-04-27T22:35:27.441Z,26.02
2023-04-27T22:37:56.067Z,26.13
2023-04-27T22:40:23.104Z,28.20
2023-04-27T22:42:51.363Z,29.58
2023-04-27T22:45:18.142Z,29.30
2023-04-27T22:47:45.682Z,29.98
2023-04-27T22:50:13.163Z,30.02
2023-04-27T22:52:42.375Z,28.20
2023-04-27T22:55:10.052Z,28.63
2023-04-27T22:57:37.358Z,29.73
2023-04-27T23:00:13.907Z,28.15
2023-04-27T23:02:41.062Z,30.45
2023-04-27T23:05:08.434Z,31.98
2023-04-27T23:07:37.103Z,31.33
2023-04-27T23:10:04.774Z,34.50
2023-04-27T23:12:31.837Z,34.80
2023-04-27T23:14:58.930Z,35.90
2023-04-27T23:17:32.067Z,38.20
2023-04-27T23:20:00.208Z,36.40
2023-04-27T23:22:27.667Z,35.65
2023-04-27T23:24:54.845Z,34.58
2023-04-27T23:27:25.859Z,36.95
2023-04-27T23:29:53.003Z,38.20
2023-04-27T23:32:20.193Z,34.75
2023-04-27T23:34:47.011Z,35.75
2023-04-27T23:37:13.748Z,36.35
2023-04-27T23:39:40.566Z,36.85
2023-04-27T23:42:07.290Z,38.35
2023-04-27T23:44:34.079Z,35.50
2023-04-27T23:47:00.870Z,37.85
2023-04-27T23:49:27.643Z,34.78
2023-04-27T23:51:54.435Z,34.30
2023-04-27T23:54:21.226Z,32.72
2023-04-27T23:56:49.822Z,34.80
2023-04-27T23:59:17.099Z,31.92
